sensor_id;sensor_type;location;lat;lon;timestamp;pressure;altitude;pressure_sealevel;temperature;humidity
23619;BME280;18207;32.078;34.818;2022-12-07T00:00:37;101245.78;;;24.16;42.84
23619;BME280;18207;32.078;34.818;2022-12-07T00:03:08;101236.56;;;24.15;42.83
23619;BME280;18207;32.078;34.818;2022-12-07T00:05:38;101241.69;;;24.13;42.48
23619;BME280;18207;32.078;34.818;2022-12-07T00:08:09;101236.75;;;24.10;43.14
23619;BME280;18207;32.078;34.818;2022-12-07T00:10:41;101249.16;;;24.09;42.70
23619;BME280;18207;32.078;34.818;2022-12-07T00:13:11;101246.34;;;24.09;42.64
23619;BME280;18207;32.078;34.818;2022-12-07T00:15:42;101246.34;;;24.09;42.72
23619;BME280;18207;32.078;34.818;2022-12-07T00:18:12;101251.16;;;24.09;42.99
23619;BME280;18207;32.078;34.818;2022-12-07T00:20:43;101254.78;;;24.09;42.65
23619;BME280;18207;32.078;34.818;2022-12-07T00:23:13;101258.44;;;24.10;43.06
23619;BME280;18207;32.078;34.818;2022-12-07T00:25:45;101250.47;;;24.12;42.95
23619;BME280;18207;32.078;34.818;2022-12-07T00:28:17;101256.91;;;24.12;42.68
23619;BME280;18207;32.078;34.818;2022-12-07T00:30:47;101256.09;;;24.12;43.09
23619;BME280;18207;32.078;34.818;2022-12-07T00:33:18;101260.88;;;24.11;43.22
23619;BME280;18207;32.078;34.818;2022-12-07T00:35:56;101263.19;;;24.09;43.10
23619;BME280;18207;32.078;34.818;2022-12-07T00:38:30;101274.00;;;24.07;43.21
23619;BME280;18207;32.078;34.818;2022-12-07T00:41:06;101275.47;;;24.05;42.95
23619;BME280;18207;32.078;34.818;2022-12-07T00:43:36;101280.66;;;24.03;42.94
23619;BME280;18207;32.078;34.818;2022-12-07T00:46:08;101274.19;;;24.02;43.16
23619;BME280;18207;32.078;34.818;2022-12-07T00:48:39;101280.66;;;24.03;42.67
23619;BME280;18207;32.078;34.818;2022-12-07T00:51:11;101279.81;;;24.02;43.13
23619;BME280;18207;32.078;34.818;2022-12-07T00:53:42;101285.78;;;24.01;43.31
23619;BME280;18207;32.078;34.818;2022-12-07T00:56:20;101283.28;;;23.99;43.05
23619;BME280;18207;32.078;34.818;2022-12-07T00:58:53;101279.69;;;23.99;43.37
23619;BME280;18207;32.078;34.818;2022-12-07T01:01:26;101278.88;;;23.98;43.18
23619;BME280;18207;32.078;34.818;2022-12-07T01:03:58;101279.19;;;23.97;43.27
23619;BME280;18207;32.078;34.818;2022-12-07T01:06:30;101275.59;;;23.96;43.29
23619;BME280;18207;32.078;34.818;2022-12-07T01:09:02;101269.97;;;23.96;43.23
23619;BME280;18207;32.078;34.818;2022-12-07T01:11:34;101269.13;;;23.96;43.31
23619;BME280;18207;32.078;34.818;2022-12-07T01:14:04;101266.31;;;23.96;43.11
23619;BME280;18207;32.078;34.818;2022-12-07T01:16:35;101270.78;;;23.97;43.32
23619;BME280;18207;32.078;34.818;2022-12-07T01:19:06;101265.16;;;23.97;43.20
23619;BME280;18207;32.078;34.818;2022-12-07T01:21:36;101268.81;;;23.97;43.01
23619;BME280;18207;32.078;34.818;2022-12-07T01:24:11;101266.00;;;23.97;43.27
23619;BME280;18207;32.078;34.818;2022-12-07T01:26:43;101261.19;;;23.98;43.34
23619;BME280;18207;32.078;34.818;2022-12-07T01:29:14;101264.84;;;23.98;43.26
23619;BME280;18207;32.078;34.818;2022-12-07T01:31:44;101263.19;;;23.97;43.30
23619;BME280;18207;32.078;34.818;2022-12-07T01:34:14;101261.19;;;23.98;43.07
23619;BME280;18207;32.078;34.818;2022-12-07T01:36:44;101262.03;;;23.98;43.45
23619;BME280;18207;32.078;34.818;2022-12-07T01:39:15;101258.03;;;23.99;43.34
23619;BME280;18207;32.078;34.818;2022-12-07T01:41:47;101264.97;;;24.02;43.39
23619;BME280;18207;32.078;34.818;2022-12-07T01:44:22;101255.38;;;24.03;43.46
23619;BME280;18207;32.078;34.818;2022-12-07T01:46:54;101259.00;;;24.03;43.22
23619;BME280;18207;32.078;34.818;2022-12-07T01:49:35;101248.56;;;24.04;43.46
23619;BME280;18207;32.078;34.818;2022-12-07T01:52:16;101260.63;;;24.04;43.12
23619;BME280;18207;32.078;34.818;2022-12-07T01:54:50;101259.47;;;24.05;43.17
23619;BME280;18207;32.078;34.818;2022-12-07T01:57:24;101255.50;;;24.06;43.53
23619;BME280;18207;32.078;34.818;2022-12-07T01:59:57;101257.13;;;24.07;43.66
23619;BME280;18207;32.078;34.818;2022-12-07T02:02:34;101264.41;;;24.08;43.64
23619;BME280;18207;32.078;34.818;2022-12-07T02:05:07;101260.75;;;24.08;43.55
23619;BME280;18207;32.078;34.818;2022-12-07T02:07:38;101255.13;;;24.08;43.25
23619;BME280;18207;32.078;34.818;2022-12-07T02:10:17;101255.13;;;24.08;43.38
23619;BME280;18207;32.078;34.818;2022-12-07T02:12:55;101259.94;;;24.07;43.20
23619;BME280;18207;32.078;34.818;2022-12-07T02:15:40;101256.31;;;24.07;43.43
23619;BME280;18207;32.078;34.818;2022-12-07T02:18:20;101259.13;;;24.07;43.45
23619;BME280;18207;32.078;34.818;2022-12-07T02:21:03;101258.63;;;24.05;43.37
23619;BME280;18207;32.078;34.818;2022-12-07T02:24:15;101253.38;;;24.03;43.24
23619;BME280;18207;32.078;34.818;2022-12-07T02:27:19;101250.09;;;24.01;43.21
23619;BME280;18207;32.078;34.818;2022-12-07T02:30:02;101256.41;;;23.98;43.54
23619;BME280;18207;32.078;34.818;2022-12-07T02:32:45;101246.78;;;23.99;43.62
23619;BME280;18207;32.078;34.818;2022-12-07T02:35:25;101249.59;;;23.99;43.27
23619;BME280;18207;32.078;34.818;2022-12-07T02:38:06;101260.50;;;24.01;43.54
23619;BME280;18207;32.078;34.818;2022-12-07T02:40:48;101264.97;;;24.02;43.77
23619;BME280;18207;32.078;34.818;2022-12-07T02:43:25;101266.44;;;23.99;43.35
23619;BME280;18207;32.078;34.818;2022-12-07T02:46:02;101258.88;;;24.00;43.34
23619;BME280;18207;32.078;34.818;2022-12-07T02:48:37;101250.78;;;23.98;43.44
23619;BME280;18207;32.078;34.818;2022-12-07T02:51:09;101257.56;;;23.97;43.62
23619;BME280;18207;32.078;34.818;2022-12-07T02:53:42;101258.38;;;23.98;43.91
23619;BME280;18207;32.078;34.818;2022-12-07T02:56:26;101260.38;;;23.97;43.45
23619;BME280;18207;32.078;34.818;2022-12-07T02:59:15;101256.25;;;23.95;43.26
23619;BME280;18207;32.078;34.818;2022-12-07T03:02:05;101264.22;;;23.93;43.31
23619;BME280;18207;32.078;34.818;2022-12-07T03:04:50;101264.91;;;23.90;43.52
23619;BME280;18207;32.078;34.818;2022-12-07T03:07:36;101266.06;;;23.89;43.68
23619;BME280;18207;32.078;34.818;2022-12-07T03:10:20;101265.59;;;23.87;43.50
23619;BME280;18207;32.078;34.818;2022-12-07T03:13:03;101265.94;;;23.85;43.56
23619;BME280;18207;32.078;34.818;2022-12-07T03:15:43;101262.31;;;23.85;43.27
23619;BME280;18207;32.078;34.818;2022-12-07T03:18:23;101269.13;;;23.84;43.87
23619;BME280;18207;32.078;34.818;2022-12-07T03:21:00;101271.91;;;23.84;43.63
23619;BME280;18207;32.078;34.818;2022-12-07T03:23:35;101270.28;;;23.83;43.39
23619;BME280;18207;32.078;34.818;2022-12-07T03:26:10;101275.88;;;23.83;43.68
23619;BME280;18207;32.078;34.818;2022-12-07T03:28:47;101281.50;;;23.83;43.58
23619;BME280;18207;32.078;34.818;2022-12-07T03:31:22;101281.50;;;23.83;43.47
23619;BME280;18207;32.078;34.818;2022-12-07T03:34:06;101278.69;;;23.83;43.71
23619;BME280;18207;32.078;34.818;2022-12-07T03:36:43;101279.88;;;23.82;43.62
23619;BME280;18207;32.078;34.818;2022-12-07T03:39:24;101282.19;;;23.80;43.76
23619;BME280;18207;32.078;34.818;2022-12-07T03:41:57;101278.09;;;23.77;43.65
23619;BME280;18207;32.078;34.818;2022-12-07T03:44:29;101282.06;;;23.76;43.36
23619;BME280;18207;32.078;34.818;2022-12-07T03:47:05;101282.38;;;23.75;43.58
23619;BME280;18207;32.078;34.818;2022-12-07T03:49:48;101277.59;;;23.75;43.85
23619;BME280;18207;32.078;34.818;2022-12-07T03:52:28;101283.53;;;23.74;43.90
23619;BME280;18207;32.078;34.818;2022-12-07T03:55:06;101279.09;;;23.73;43.54
23619;BME280;18207;32.078;34.818;2022-12-07T03:57:41;101286.34;;;23.74;43.48
23619;BME280;18207;32.078;34.818;2022-12-07T04:00:14;101283.53;;;23.74;43.63
23619;BME280;18207;32.078;34.818;2022-12-07T04:02:45;101282.69;;;23.73;43.86
23619;BME280;18207;32.078;34.818;2022-12-07T04:05:17;101293.59;;;23.75;43.52
23619;BME280;18207;32.078;34.818;2022-12-07T04:07:47;101300.88;;;23.76;44.18
23619;BME280;18207;32.078;34.818;2022-12-07T04:10:19;101298.91;;;23.76;44.11
23619;BME280;18207;32.078;34.818;2022-12-07T04:12:49;101302.50;;;23.77;43.79
23619;BME280;18207;32.078;34.818;2022-12-07T04:15:20;101311.78;;;23.77;43.93
23619;BME280;18207;32.078;34.818;2022-12-07T04:17:50;101316.53;;;23.77;44.14
23619;BME280;18207;32.078;34.818;2022-12-07T04:20:22;101331.41;;;23.77;44.03
23619;BME280;18207;32.078;34.818;2022-12-07T04:22:53;101333.38;;;23.77;43.84
23619;BME280;18207;32.078;34.818;2022-12-07T04:25:23;101333.88;;;23.79;43.90
23619;BME280;18207;32.078;34.818;2022-12-07T04:27:54;101329.91;;;23.80;43.82
23619;BME280;18207;32.078;34.818;2022-12-07T04:30:24;101339.63;;;23.82;44.19
23619;BME280;18207;32.078;34.818;2022-12-07T04:32:55;101339.63;;;23.82;44.04
23619;BME280;18207;32.078;34.818;2022-12-07T04:35:27;101329.53;;;23.81;44.11
23619;BME280;18207;32.078;34.818;2022-12-07T04:37:58;101341.63;;;23.82;44.07
23619;BME280;18207;32.078;34.818;2022-12-07T04:40:29;101327.22;;;23.83;43.87
23619;BME280;18207;32.078;34.818;2022-12-07T04:42:59;101333.69;;;23.84;43.78
23619;BME280;18207;32.078;34.818;2022-12-07T04:45:30;101327.34;;;23.87;44.11
23619;BME280;18207;32.078;34.818;2022-12-07T04:48:01;101325.84;;;23.89;43.87
23619;BME280;18207;32.078;34.818;2022-12-07T04:50:35;101330.28;;;23.90;43.98
23619;BME280;18207;32.078;34.818;2022-12-07T04:53:13;101322.72;;;23.91;43.83
23619;BME280;18207;32.078;34.818;2022-12-07T04:55:44;101338.72;;;23.90;43.98
23619;BME280;18207;32.078;34.818;2022-12-07T04:58:14;101333.09;;;23.90;43.74
23619;BME280;18207;32.078;34.818;2022-12-07T05:00:45;101332.28;;;23.90;43.92
23619;BME280;18207;32.078;34.818;2022-12-07T05:03:15;101327.03;;;23.88;43.90
23619;BME280;18207;32.078;34.818;2022-12-07T05:05:47;101320.56;;;23.88;43.86
23619;BME280;18207;32.078;34.818;2022-12-07T05:08:17;101320.56;;;23.88;44.32
23619;BME280;18207;32.078;34.818;2022-12-07T05:10:49;101331.31;;;23.86;44.28
23619;BME280;18207;32.078;34.818;2022-12-07T05:13:20;101332.16;;;23.86;44.34
23619;BME280;18207;32.078;34.818;2022-12-07T05:15:50;101325.72;;;23.86;44.08
23619;BME280;18207;32.078;34.818;2022-12-07T05:18:21;101329.00;;;23.88;44.43
23619;BME280;18207;32.078;34.818;2022-12-07T05:20:53;101328.19;;;23.87;44.26
23619;BME280;18207;32.078;34.818;2022-12-07T05:23:23;101334.63;;;23.88;44.20
23619;BME280;18207;32.078;34.818;2022-12-07T05:25:54;101332.16;;;23.86;44.12
23619;BME280;18207;32.078;34.818;2022-12-07T05:28:25;101328.19;;;23.87;44.40
23619;BME280;18207;32.078;34.818;2022-12-07T05:30:55;101330.66;;;23.89;44.16
23619;BME280;18207;32.078;34.818;2022-12-07T05:33:26;101340.72;;;23.90;44.41
23619;BME280;18207;32.078;34.818;2022-12-07T05:35:59;101342.84;;;23.93;44.54
23619;BME280;18207;32.078;34.818;2022-12-07T05:38:34;101343.16;;;23.91;44.15
23619;BME280;18207;32.078;34.818;2022-12-07T05:41:06;101340.50;;;23.95;44.38
23619;BME280;18207;32.078;34.818;2022-12-07T05:43:56;101343.28;;;23.95;44.66
23619;BME280;18207;32.078;34.818;2022-12-07T05:46:27;101350.22;;;23.97;44.35
23619;BME280;18207;32.078;34.818;2022-12-07T05:48:58;101345.44;;;23.98;44.40
23619;BME280;18207;32.078;34.818;2022-12-07T05:51:30;101350.34;;;24.01;43.98
23619;BME280;18207;32.078;34.818;2022-12-07T05:54:00;101363.25;;;24.02;44.31
23619;BME280;18207;32.078;34.818;2022-12-07T05:56:31;101352.81;;;24.02;44.31
23619;BME280;18207;32.078;34.818;2022-12-07T05:59:02;101357.63;;;24.02;44.28
23619;BME280;18207;32.078;34.818;2022-12-07T06:01:53;101359.28;;;24.03;44.31
23619;BME280;18207;32.078;34.818;2022-12-07T06:04:27;101348.84;;;24.03;44.25
23619;BME280;18207;32.078;34.818;2022-12-07T06:07:00;101351.28;;;24.05;44.28
23619;BME280;18207;32.078;34.818;2022-12-07T06:09:31;101352.47;;;24.04;44.45
23619;BME280;18207;32.078;34.818;2022-12-07T06:12:04;101365.00;;;24.06;44.37
23619;BME280;18207;32.078;34.818;2022-12-07T06:14:52;101365.00;;;24.06;44.60
23619;BME280;18207;32.078;34.818;2022-12-07T06:17:23;101373.56;;;24.10;44.67
23619;BME280;18207;32.078;34.818;2022-12-07T06:19:53;101368.44;;;24.12;44.37
23619;BME280;18207;32.078;34.818;2022-12-07T06:22:25;101368.44;;;24.12;44.35
23619;BME280;18207;32.078;34.818;2022-12-07T06:24:56;101375.34;;;24.14;44.56
23619;BME280;18207;32.078;34.818;2022-12-07T06:27:33;101369.72;;;24.14;44.67
23619;BME280;18207;32.078;34.818;2022-12-07T06:30:06;101381.75;;;24.15;44.41
23619;BME280;18207;32.078;34.818;2022-12-07T06:32:37;101376.16;;;24.15;44.38
23619;BME280;18207;32.078;34.818;2022-12-07T06:35:08;101362.94;;;24.15;44.34
23619;BME280;18207;32.078;34.818;2022-12-07T06:37:40;101369.03;;;24.17;44.50
23619;BME280;18207;32.078;34.818;2022-12-07T06:40:12;101368.69;;;24.18;44.58
23619;BME280;18207;32.078;34.818;2022-12-07T06:42:42;101362.72;;;24.20;44.72
23619;BME280;18207;32.078;34.818;2022-12-07T06:45:13;101356.78;;;24.21;44.38
23619;BME280;18207;32.078;34.818;2022-12-07T06:47:44;101364.34;;;24.21;44.62
23619;BME280;18207;32.078;34.818;2022-12-07T06:50:15;101361.22;;;24.22;44.80
23619;BME280;18207;32.078;34.818;2022-12-07T06:52:48;101360.88;;;24.24;44.64
23619;BME280;18207;32.078;34.818;2022-12-07T06:55:19;101369.78;;;24.26;44.53
23619;BME280;18207;32.078;34.818;2022-12-07T06:57:49;101364.97;;;24.26;44.72
23619;BME280;18207;32.078;34.818;2022-12-07T07:00:20;101378.66;;;24.28;44.57
23619;BME280;18207;32.078;34.818;2022-12-07T07:02:51;101374.69;;;24.29;44.77
23619;BME280;18207;32.078;34.818;2022-12-07T07:05:22;101379.63;;;24.32;44.74
23619;BME280;18207;32.078;34.818;2022-12-07T07:07:54;101374.47;;;24.34;44.58
23619;BME280;18207;32.078;34.818;2022-12-07T07:10:45;101375.78;;;24.36;44.71
23619;BME280;18207;32.078;34.818;2022-12-07T07:13:16;101379.88;;;24.39;44.78
23619;BME280;18207;32.078;34.818;2022-12-07T07:15:46;101385.97;;;24.41;44.95
23619;BME280;18207;32.078;34.818;2022-12-07T07:18:17;101384.44;;;24.43;44.79
23619;BME280;18207;32.078;34.818;2022-12-07T07:20:47;101383.00;;;24.46;44.88
23619;BME280;18207;32.078;34.818;2022-12-07T07:23:20;101387.44;;;24.47;44.92
23619;BME280;18207;32.078;34.818;2022-12-07T07:25:51;101395.53;;;24.48;44.76
23619;BME280;18207;32.078;34.818;2022-12-07T07:28:22;101387.56;;;24.50;44.51
23619;BME280;18207;32.078;34.818;2022-12-07T07:30:53;101387.22;;;24.52;44.87
23619;BME280;18207;32.078;34.818;2022-12-07T07:33:23;101394.13;;;24.54;44.80
23619;BME280;18207;32.078;34.818;2022-12-07T07:35:54;101385.00;;;24.57;44.88
23619;BME280;18207;32.078;34.818;2022-12-07T07:38:26;101388.78;;;24.61;44.88
23619;BME280;18207;32.078;34.818;2022-12-07T07:40:56;101389.22;;;24.63;44.68
23619;BME280;18207;32.078;34.818;2022-12-07T07:43:27;101394.16;;;24.66;44.74
23619;BME280;18207;32.078;34.818;2022-12-07T07:45:57;101389.03;;;24.68;44.48
23619;BME280;18207;32.078;34.818;2022-12-07T07:48:28;101390.31;;;24.71;44.81
23619;BME280;18207;32.078;34.818;2022-12-07T07:50:58;101387.13;;;24.72;44.80
23619;BME280;18207;32.078;34.818;2022-12-07T07:53:31;101385.97;;;24.73;44.81
23619;BME280;18207;32.078;34.818;2022-12-07T07:56:02;101379.19;;;24.74;44.83
23619;BME280;18207;32.078;34.818;2022-12-07T07:58:32;101384.13;;;24.77;44.96
23619;BME280;18207;32.078;34.818;2022-12-07T08:01:07;101387.41;;;24.79;44.77
23619;BME280;18207;32.078;34.818;2022-12-07T08:03:37;101388.69;;;24.82;44.93
23619;BME280;18207;32.078;34.818;2022-12-07T08:06:08;101381.53;;;24.84;44.90
23619;BME280;18207;32.078;34.818;2022-12-07T08:08:40;101374.41;;;24.87;45.10
23619;BME280;18207;32.078;34.818;2022-12-07T08:11:11;101382.13;;;24.90;44.87
23619;BME280;18207;32.078;34.818;2022-12-07T08:13:41;101387.88;;;24.93;44.83
23619;BME280;18207;32.078;34.818;2022-12-07T08:16:12;101381.56;;;24.96;45.06
23619;BME280;18207;32.078;34.818;2022-12-07T08:18:43;101378.06;;;24.99;45.11
23619;BME280;18207;32.078;34.818;2022-12-07T08:21:15;101381.34;;;25.01;44.78
23619;BME280;18207;32.078;34.818;2022-12-07T08:23:47;101371.72;;;25.02;45.00
23619;BME280;18207;32.078;34.818;2022-12-07T08:26:18;101363.75;;;25.04;44.86
23619;BME280;18207;32.078;34.818;2022-12-07T08:28:48;101363.88;;;25.07;44.91
23619;BME280;18207;32.078;34.818;2022-12-07T08:31:19;101365.19;;;25.10;44.99
23619;BME280;18207;32.078;34.818;2022-12-07T08:33:50;101358.88;;;25.13;44.85
23619;BME280;18207;32.078;34.818;2022-12-07T08:36:20;101361.78;;;25.16;45.04
23619;BME280;18207;32.078;34.818;2022-12-07T08:38:53;101355.09;;;25.21;45.28
23619;BME280;18207;32.078;34.818;2022-12-07T08:41:44;101360.03;;;25.24;45.29
23619;BME280;18207;32.078;34.818;2022-12-07T08:44:14;101353.72;;;25.27;45.01
23619;BME280;18207;32.078;34.818;2022-12-07T08:46:49;101349.00;;;25.31;44.97
23619;BME280;18207;32.078;34.818;2022-12-07T08:49:26;101343.84;;;25.33;45.02
23619;BME280;18207;32.078;34.818;2022-12-07T08:51:59;101342.69;;;25.34;44.88
23619;BME280;18207;32.078;34.818;2022-12-07T08:54:33;101347.63;;;25.37;44.76
23619;BME280;18207;32.078;34.818;2022-12-07T08:57:04;101341.63;;;25.38;44.72
23619;BME280;18207;32.078;34.818;2022-12-07T08:59:37;101340.81;;;25.38;45.13
23619;BME280;18207;32.078;34.818;2022-12-07T09:02:08;101336.00;;;25.38;45.29
23619;BME280;18207;32.078;34.818;2022-12-07T09:04:38;101340.09;;;25.41;45.25
23619;BME280;18207;32.078;34.818;2022-12-07T09:07:08;101340.91;;;25.41;44.92
23619;BME280;18207;32.078;34.818;2022-12-07T09:09:41;101327.22;;;25.40;45.06
23619;BME280;18207;32.078;34.818;2022-12-07T09:12:11;101321.59;;;25.40;44.94
23619;BME280;18207;32.078;34.818;2022-12-07T09:14:42;101325.69;;;25.42;44.86
23619;BME280;18207;32.078;34.818;2022-12-07T09:17:13;101324.97;;;25.45;45.01
23619;BME280;18207;32.078;34.818;2022-12-07T09:19:44;101317.34;;;25.46;45.14
23619;BME280;18207;32.078;34.818;2022-12-07T09:22:14;101319.47;;;25.49;45.13
23619;BME280;18207;32.078;34.818;2022-12-07T09:24:46;101319.91;;;25.51;44.98
23619;BME280;18207;32.078;34.818;2022-12-07T09:27:17;101313.47;;;25.50;44.92
23619;BME280;18207;32.078;34.818;2022-12-07T09:29:47;101315.91;;;25.52;44.96
23619;BME280;18207;32.078;34.818;2022-12-07T09:32:17;101303.84;;;25.51;45.08
23619;BME280;18207;32.078;34.818;2022-12-07T09:34:48;101308.31;;;25.52;45.27
23619;BME280;18207;32.078;34.818;2022-12-07T09:37:18;101301.13;;;25.55;45.22
23619;BME280;18207;32.078;34.818;2022-12-07T09:39:51;101296.78;;;25.57;45.23
23619;BME280;18207;32.078;34.818;2022-12-07T09:42:30;101298.09;;;25.60;44.94
23619;BME280;18207;32.078;34.818;2022-12-07T09:45:07;101297.72;;;25.61;44.99
23619;BME280;18207;32.078;34.818;2022-12-07T09:47:42;101291.38;;;25.64;45.12
23619;BME280;18207;32.078;34.818;2022-12-07T09:50:16;101279.38;;;25.67;45.33
23619;BME280;18207;32.078;34.818;2022-12-07T09:52:48;101279.03;;;25.69;45.35
23619;BME280;18207;32.078;34.818;2022-12-07T09:55:26;101271.03;;;25.71;45.16
23619;BME280;18207;32.078;34.818;2022-12-07T09:57:58;101271.50;;;25.73;45.37
23619;BME280;18207;32.078;34.818;2022-12-07T10:00:29;101255.88;;;25.75;45.48
23619;BME280;18207;32.078;34.818;2022-12-07T10:03:02;101260.47;;;25.80;45.15
23619;BME280;18207;32.078;34.818;2022-12-07T10:05:38;101258.59;;;25.84;45.36
23619;BME280;18207;32.078;34.818;2022-12-07T10:08:12;101243.81;;;25.87;45.36
23619;BME280;18207;32.078;34.818;2022-12-07T10:10:51;101247.50;;;25.91;45.20
23619;BME280;18207;32.078;34.818;2022-12-07T10:13:34;101242.00;;;25.94;45.15
23619;BME280;18207;32.078;34.818;2022-12-07T10:16:06;101246.91;;;25.97;44.80
23619;BME280;18207;32.078;34.818;2022-12-07T10:18:48;101239.72;;;25.99;45.04
23619;BME280;18207;32.078;34.818;2022-12-07T10:21:21;101239.84;;;26.03;44.96
23619;BME280;18207;32.078;34.818;2022-12-07T10:24:04;101245.56;;;26.06;44.73
23619;BME280;18207;32.078;34.818;2022-12-07T10:26:48;101235.94;;;26.07;44.84
23619;BME280;18207;32.078;34.818;2022-12-07T10:29:24;101240.41;;;26.08;44.85
23619;BME280;18207;32.078;34.818;2022-12-07T10:31:59;101232.75;;;26.09;44.79
23619;BME280;18207;32.078;34.818;2022-12-07T10:34:31;101225.09;;;26.09;44.48
23619;BME280;18207;32.078;34.818;2022-12-07T10:37:19;101224.75;;;26.11;44.85
23619;BME280;18207;32.078;34.818;2022-12-07T10:39:55;101219.94;;;26.11;44.75
23619;BME280;18207;32.078;34.818;2022-12-07T10:42:29;101214.75;;;26.13;44.65
23619;BME280;18207;32.078;34.818;2022-12-07T10:45:12;101214.84;;;26.17;44.38
23619;BME280;18207;32.078;34.818;2022-12-07T10:47:48;101216.97;;;26.20;44.56
23619;BME280;18207;32.078;34.818;2022-12-07T10:50:50;101212.59;;;26.22;44.47
23619;BME280;18207;32.078;34.818;2022-12-07T10:53:51;101215.50;;;26.26;44.58
23619;BME280;18207;32.078;34.818;2022-12-07T10:57:02;101213.50;;;26.26;44.71
23619;BME280;18207;32.078;34.818;2022-12-07T11:00:10;101213.97;;;26.28;44.57
23619;BME280;18207;32.078;34.818;2022-12-07T11:03:16;101214.06;;;26.32;44.78
23619;BME280;18207;32.078;34.818;2022-12-07T11:05:55;101212.50;;;26.34;44.72
23619;BME280;18207;32.078;34.818;2022-12-07T11:08:51;101202.50;;;26.37;44.50
23619;BME280;18207;32.078;34.818;2022-12-07T11:11:35;101205.78;;;26.39;44.61
23619;BME280;18207;32.078;34.818;2022-12-07T11:14:20;101211.06;;;26.40;44.49
23619;BME280;18207;32.078;34.818;2022-12-07T11:17:04;101209.91;;;26.41;44.28
23619;BME280;18207;32.078;34.818;2022-12-07T11:19:58;101210.72;;;26.42;44.64
23619;BME280;18207;32.078;34.818;2022-12-07T11:22:43;101215.19;;;26.43;44.48
23619;BME280;18207;32.078;34.818;2022-12-07T11:25:30;101213.19;;;26.43;44.47
23619;BME280;18207;32.078;34.818;2022-12-07T11:28:22;101206.72;;;26.43;44.08
23619;BME280;18207;32.078;34.818;2022-12-07T11:31:08;101220.81;;;26.43;44.30
23619;BME280;18207;32.078;34.818;2022-12-07T11:33:47;101213.19;;;26.43;44.22
23619;BME280;18207;32.078;34.818;2022-12-07T11:36:35;101204.25;;;26.41;44.21
23619;BME280;18207;32.078;34.818;2022-12-07T11:39:26;101201.91;;;26.43;44.23
23619;BME280;18207;32.078;34.818;2022-12-07T11:42:06;101206.34;;;26.44;44.29
23619;BME280;18207;32.078;34.818;2022-12-07T11:44:49;101208.00;;;26.45;43.88
23619;BME280;18207;32.078;34.818;2022-12-07T11:47:32;101203.16;;;26.46;44.16
23619;BME280;18207;32.078;34.818;2022-12-07T11:50:25;101208.81;;;26.46;44.44
23619;BME280;18207;32.078;34.818;2022-12-07T11:53:00;101204.34;;;26.45;44.29
23619;BME280;18207;32.078;34.818;2022-12-07T11:55:42;101209.56;;;26.43;44.24
23619;BME280;18207;32.078;34.818;2022-12-07T11:58:30;101204.72;;;26.43;44.17
23619;BME280;18207;32.078;34.818;2022-12-07T12:01:26;101208.34;;;26.44;44.36
23619;BME280;18207;32.078;34.818;2022-12-07T12:04:06;101212.81;;;26.45;44.23
23619;BME280;18207;32.078;34.818;2022-12-07T12:06:45;101208.00;;;26.45;44.29
23619;BME280;18207;32.078;34.818;2022-12-07T12:09:21;101208.00;;;26.45;44.16
23619;BME280;18207;32.078;34.818;2022-12-07T12:12:31;101205.19;;;26.45;43.99
23619;BME280;18207;32.078;34.818;2022-12-07T12:15:45;101208.00;;;26.45;44.25
23619;BME280;18207;32.078;34.818;2022-12-07T12:18:45;101195.53;;;26.46;44.12
23619;BME280;18207;32.078;34.818;2022-12-07T12:21:21;101201.59;;;26.48;44.43
23619;BME280;18207;32.078;34.818;2022-12-07T12:24:02;101204.88;;;26.50;44.48
23619;BME280;18207;32.078;34.818;2022-12-07T12:26:35;101209.00;;;26.53;44.46
23619;BME280;18207;32.078;34.818;2022-12-07T12:29:20;101205.44;;;26.56;44.46
23619;BME280;18207;32.078;34.818;2022-12-07T12:32:12;101204.63;;;26.55;44.29
23619;BME280;18207;32.078;34.818;2022-12-07T12:35:02;101202.25;;;26.57;44.33
23619;BME280;18207;32.078;34.818;2022-12-07T12:37:53;101192.97;;;26.57;44.40
23619;BME280;18207;32.078;34.818;2022-12-07T12:40:56;101181.31;;;26.58;44.45
23619;BME280;18207;32.078;34.818;2022-12-07T12:43:51;101186.63;;;26.60;44.36
23619;BME280;18207;32.078;34.818;2022-12-07T12:46:48;101184.97;;;26.59;44.44
23619;BME280;18207;32.078;34.818;2022-12-07T12:49:44;101184.97;;;26.59;44.30
23619;BME280;18207;32.078;34.818;2022-12-07T12:53:03;101190.16;;;26.57;44.17
23619;BME280;18207;32.078;34.818;2022-12-07T12:56:20;101191.00;;;26.57;44.38
23619;BME280;18207;32.078;34.818;2022-12-07T12:59:23;101190.16;;;26.57;44.28
23619;BME280;18207;32.078;34.818;2022-12-07T13:02:07;101188.16;;;26.57;44.13
23619;BME280;18207;32.078;34.818;2022-12-07T13:04:53;101185.78;;;26.59;44.28
23619;BME280;18207;32.078;34.818;2022-12-07T13:07:57;101184.13;;;26.58;44.34
23619;BME280;18207;32.078;34.818;2022-12-07T13:10:46;101184.13;;;26.58;44.45
23619;BME280;18207;32.078;34.818;2022-12-07T13:13:35;101176.91;;;26.57;44.21
23619;BME280;18207;32.078;34.818;2022-12-07T13:16:48;101179.59;;;26.54;44.41
23619;BME280;18207;32.078;34.818;2022-12-07T13:19:58;101169.53;;;26.53;44.29
23619;BME280;18207;32.078;34.818;2022-12-07T13:22:50;101178.78;;;26.53;44.34
23619;BME280;18207;32.078;34.818;2022-12-07T13:25:54;101175.97;;;26.53;44.51
23619;BME280;18207;32.078;34.818;2022-12-07T13:28:36;101179.25;;;26.55;44.41
23619;BME280;18207;32.078;34.818;2022-12-07T13:31:30;101185.34;;;26.57;44.21